Time,TemperatureF,DewpointF,PressureIn,WindDirection,WindDirectionDegrees,WindSpeedMPH,WindSpeedGustMPH,Humidity,HourlyPrecipIn,Conditions,Clouds,dailyrainin,SolarRadiationWatts/m^2,SoftwareType,DateUTC
2013-09-12 00:05:00,71.0,69.0,-100.00,NNW,342,5.0,8.0,93,0.00,,,0.01,0.000000,,2013-09-12 04:05:00,
2013-09-12 00:44:00,69.0,68.0,-100.00,NNW,341,4.0,7.0,95,0.00,,,0.01,0.000000,,2013-09-12 04:44:00,
2013-09-12 00:54:00,69.0,68.0,-100.00,NNW,341,4.0,7.0,95,0.00,,,0.01,0.000000,,2013-09-12 04:54:00,
2013-09-12 01:03:00,69.0,68.0,-100.00,NNW,341,4.0,7.0,95,0.00,,,0.01,0.000000,,2013-09-12 05:03:00,
2013-09-12 01:43:00,69.0,68.0,-100.00,NNW,345,4.0,6.0,98,0.00,,,0.01,0.000000,,2013-09-12 05:43:00,
2013-09-12 01:53:00,69.0,68.0,-100.00,NNW,345,4.0,6.0,98,0.00,,,0.01,0.000000,,2013-09-12 05:53:00,
2013-09-12 02:01:00,69.0,68.0,-100.00,NNW,345,4.0,6.0,98,0.00,,,0.01,0.000000,,2013-09-12 06:01:00,
2013-09-12 02:42:00,68.0,67.0,-100.00,NNW,338,5.0,7.0,98,0.00,,,0.01,0.000000,,2013-09-12 06:42:00,
2013-09-12 02:52:00,68.0,67.0,-100.00,NNW,338,5.0,7.0,98,0.00,,,0.01,0.000000,,2013-09-12 06:52:00,
2013-09-12 03:02:00,68.0,67.0,-100.00,NNW,338,5.0,7.0,98,0.00,,,0.01,0.000000,,2013-09-12 07:02:00,
2013-09-12 03:44:00,68.0,68.0,-100.00,NNW,339,5.0,8.0,99,0.00,,,0.01,0.000000,,2013-09-12 07:44:00,
2013-09-12 03:53:00,68.0,68.0,-100.00,NNW,339,5.0,8.0,99,0.00,,,0.01,0.000000,,2013-09-12 07:53:00,
2013-09-12 04:02:00,68.0,68.0,-100.00,NNW,339,5.0,8.0,99,0.00,,,0.01,0.000000,,2013-09-12 08:02:00,
2013-09-12 04:42:00,68.0,68.0,-100.00,NNW,336,5.0,9.0,99,0.00,,,0.01,0.000000,,2013-09-12 08:42:00,
2013-09-12 04:52:00,68.0,68.0,-100.00,NNW,336,5.0,9.0,99,0.00,,,0.01,0.000000,,2013-09-12 08:52:00,
2013-09-12 05:02:00,68.0,68.0,-100.00,NNW,336,5.0,9.0,99,0.00,,,0.01,0.000000,,2013-09-12 09:02:00,
2013-09-12 05:43:00,68.0,68.0,-100.00,NNW,341,5.0,8.0,99,0.00,,,0.01,0.000000,,2013-09-12 09:43:00,
2013-09-12 05:53:00,68.0,68.0,-100.00,NNW,341,5.0,8.0,99,0.00,,,0.01,0.000000,,2013-09-12 09:53:00,
2013-09-12 06:03:00,68.0,68.0,-100.00,NNW,341,5.0,8.0,99,0.00,,,0.01,0.000000,,2013-09-12 10:03:00,
2013-09-12 06:43:00,68.0,68.0,-100.00,NNW,344,5.0,8.0,99,0.00,,,0.01,0.000000,,2013-09-12 10:43:00,
2013-09-12 06:53:00,68.0,68.0,-100.00,NNW,344,5.0,8.0,99,0.00,,,0.01,0.000000,,2013-09-12 10:53:00,
2013-09-12 07:03:00,68.0,68.0,-100.00,NNW,344,5.0,8.0,99,0.00,,,0.01,0.000000,,2013-09-12 11:03:00,
2013-09-12 07:42:00,67.0,67.0,-100.00,NNW,345,4.0,9.0,99,0.00,,,0.01,0.000000,,2013-09-12 11:42:00,
2013-09-12 07:52:00,67.0,67.0,-100.00,NNW,345,4.0,9.0,99,0.00,,,0.01,0.000000,,2013-09-12 11:52:00,
2013-09-12 08:01:00,67.0,67.0,-100.00,NNW,345,4.0,9.0,99,0.00,,,0.01,0.000000,,2013-09-12 12:01:00,
2013-09-12 08:42:00,67.0,67.0,-100.00,NW,323,4.0,7.0,99,0.00,,,0.01,22.000000,,2013-09-12 12:42:00,
2013-09-12 08:52:00,67.0,67.0,-100.00,NW,323,4.0,7.0,99,0.00,,,0.01,22.000000,,2013-09-12 12:52:00,
2013-09-12 09:02:00,67.0,67.0,-100.00,NW,323,4.0,7.0,99,0.00,,,0.01,22.000000,,2013-09-12 13:02:00,
2013-09-12 09:42:00,71.0,70.0,-100.00,NW,324,4.0,8.0,97,0.00,,,0.01,173.000000,,2013-09-12 13:42:00,
2013-09-12 09:52:00,71.0,70.0,-100.00,NW,324,4.0,8.0,97,0.00,,,0.01,173.000000,,2013-09-12 13:52:00,
2013-09-12 10:02:00,71.0,70.0,-100.00,NW,324,4.0,8.0,97,0.00,,,0.01,173.000000,,2013-09-12 14:02:00,
2013-09-12 10:42:00,75.0,70.0,-100.00,NNW,337,7.0,10.0,85,0.01,,,0.02,397.000000,,2013-09-12 14:42:00,
2013-09-12 10:52:00,75.0,70.0,-100.00,NNW,337,7.0,10.0,85,0.01,,,0.02,397.000000,,2013-09-12 14:52:00,
2013-09-12 11:02:00,75.0,70.0,-100.00,NNW,337,7.0,10.0,85,0.01,,,0.02,397.000000,,2013-09-12 15:02:00,
2013-09-12 11:44:00,81.0,72.0,-100.00,NNW,337,5.0,11.0,73,0.00,,,0.02,667.000000,,2013-09-12 15:44:00,
2013-09-12 11:54:00,81.0,72.0,-100.00,NNW,337,5.0,11.0,73,0.00,,,0.02,667.000000,,2013-09-12 15:54:00,
2013-09-12 12:03:00,81.0,72.0,-100.00,NNW,337,5.0,11.0,73,0.00,,,0.02,667.000000,,2013-09-12 16:03:00,
2013-09-12 12:53:00,85.0,71.0,-100.00,NNW,342,4.0,11.0,64,0.00,,,0.02,842.000000,,2013-09-12 16:53:00,
2013-09-12 13:03:00,85.0,71.0,-100.00,NNW,342,4.0,11.0,64,0.00,,,0.02,842.000000,,2013-09-12 17:03:00,
2013-09-12 13:54:00,87.0,73.0,-100.00,NNW,336,6.0,13.0,63,0.00,,,0.02,731.000000,,2013-09-12 17:54:00,
2013-09-12 14:02:00,87.0,73.0,-100.00,NNW,336,6.0,13.0,63,0.00,,,0.02,731.000000,,2013-09-12 18:02:00,
2013-09-12 14:42:00,88.0,72.0,-100.00,NNW,334,5.0,13.0,60,0.00,,,0.02,835.000000,,2013-09-12 18:42:00,
2013-09-12 14:52:00,88.0,72.0,-100.00,NNW,334,5.0,13.0,60,0.00,,,0.02,835.000000,,2013-09-12 18:52:00,
2013-09-12 15:02:00,88.0,72.0,-100.00,NNW,334,5.0,13.0,60,0.00,,,0.02,835.000000,,2013-09-12 19:02:00,
2013-09-12 15:42:00,81.0,70.0,-100.00,NNW,334,6.0,15.0,70,0.00,,,0.01,551.000000,,2013-09-12 19:42:00,
2013-09-12 15:52:00,81.0,70.0,-100.00,NNW,334,6.0,15.0,70,0.00,,,0.01,551.000000,,2013-09-12 19:52:00,
2013-09-12 16:02:00,81.0,70.0,-100.00,NNW,334,6.0,15.0,70,0.00,,,0.01,551.000000,,2013-09-12 20:02:00,
2013-09-12 16:42:00,74.0,72.0,-100.00,NNW,333,4.0,21.0,95,0.11,,,0.12,168.000000,,2013-09-12 20:42:00,
2013-09-12 16:52:00,74.0,72.0,-100.00,NNW,333,4.0,21.0,95,0.11,,,0.12,168.000000,,2013-09-12 20:52:00,
2013-09-12 17:02:00,74.0,72.0,-100.00,NNW,333,4.0,21.0,95,0.11,,,0.12,168.000000,,2013-09-12 21:02:00,
2013-09-12 17:43:00,76.0,73.0,-100.00,NNW,334,4.0,8.0,89,0.00,,,0.12,282.000000,,2013-09-12 21:43:00,
2013-09-12 17:54:00,76.0,73.0,-100.00,NNW,334,4.0,8.0,89,0.00,,,0.12,282.000000,,2013-09-12 21:54:00,
2013-09-12 18:04:00,76.0,73.0,-100.00,NNW,334,4.0,8.0,89,0.00,,,0.12,282.000000,,2013-09-12 22:04:00,
2013-09-12 18:43:00,76.0,70.0,-100.00,NNW,328,6.0,15.0,81,0.00,,,0.12,202.000000,,2013-09-12 22:43:00,
2013-09-12 18:54:00,76.0,70.0,-100.00,NNW,328,6.0,15.0,81,0.00,,,0.12,202.000000,,2013-09-12 22:54:00,
2013-09-12 19:04:00,76.0,70.0,-100.00,NNW,328,6.0,15.0,81,0.00,,,0.12,202.000000,,2013-09-12 23:04:00,
2013-09-12 19:43:00,75.0,69.0,-100.00,NW,320,5.0,12.0,82,0.00,,,0.12,101.000000,,2013-09-12 23:43:00,
2013-09-12 19:53:00,75.0,69.0,-100.00,NW,320,5.0,12.0,82,0.00,,,0.12,101.000000,,2013-09-12 23:53:00,
2013-09-12 20:01:00,75.0,69.0,-100.00,NW,320,5.0,12.0,82,0.00,,,0.12,101.000000,,2013-09-13 00:01:00,
2013-09-12 20:42:00,71.0,68.0,-100.00,NNW,339,5.0,9.0,89,0.00,,,0.12,16.000000,,2013-09-13 00:42:00,
2013-09-12 20:52:00,71.0,68.0,-100.00,NNW,339,5.0,9.0,89,0.00,,,0.12,16.000000,,2013-09-13 00:52:00,
2013-09-12 21:02:00,71.0,68.0,-100.00,NNW,339,5.0,9.0,89,0.00,,,0.12,16.000000,,2013-09-13 01:02:00,
2013-09-12 21:42:00,70.0,65.0,-100.00,NNW,341,6.0,10.0,84,0.00,,,0.12,0.000000,,2013-09-13 01:42:00,
2013-09-12 21:53:00,70.0,65.0,-100.00,NNW,341,6.0,10.0,84,0.00,,,0.12,0.000000,,2013-09-13 01:53:00,
2013-09-12 22:02:00,70.0,65.0,-100.00,NNW,341,6.0,10.0,84,0.00,,,0.12,0.000000,,2013-09-13 02:02:00,
2013-09-12 22:43:00,68.0,65.0,-100.00,NNW,331,5.0,7.0,90,0.00,,,0.12,0.000000,,2013-09-13 02:43:00,
2013-09-12 22:53:00,68.0,65.0,-100.00,NNW,331,5.0,7.0,90,0.00,,,0.12,0.000000,,2013-09-13 02:53:00,
2013-09-12 23:02:00,68.0,65.0,-100.00,NNW,331,5.0,7.0,90,0.00,,,0.12,0.000000,,2013-09-13 03:02:00,
2013-09-12 23:45:00,66.0,65.0,-100.00,NW,316,6.0,8.0,96,0.00,,,0.12,0.000000,,2013-09-13 03:45:00,
2013-09-12 23:55:00,66.0,65.0,-100.00,NW,316,6.0,8.0,96,0.00,,,0.12,0.000000,,2013-09-13 03:55:00,